Time;durP1;ratioP1;P1;durP2;ratioP2;P2;SDS_P1;SDS_P2;PMS_P1;PMS_P2;Temp;Humidity;BMP_temperature;BMP_pressure;BME280_temperature;BME280_humidity;BME280_pressure;Samples;Min_cycle;Max_cycle;Signal;HPM_P1;HPM_P2
2023/06/05 00:01:58;;;;;;;7.03;2.33;;;;;;;15.29;100.00;100964.34;4896529;29;20020;-67
2023/06/05 00:04:24;;;;;;;5.47;2.50;;;;;;;15.44;100.00;100995.09;4896647;29;20092;-68
2023/06/05 00:06:52;;;;;;;5.97;2.33;;;;;;;15.22;100.00;100970.28;4895508;29;20064;-69
2023/06/05 00:09:18;;;;;;;11.07;2.80;;;;;;;15.44;100.00;100995.09;4888702;29;20042;-69
2023/06/05 00:11:43;;;;;;;13.15;3.22;;;;;;;15.39;100.00;100975.88;4914864;29;20036;-70
2023/06/05 00:14:09;;;;;;;7.32;2.55;;;;;;;15.36;100.00;100963.69;4915107;29;20479;-68
2023/06/05 00:16:35;;;;;;;11.27;2.97;;;;;;;15.16;100.00;100924.16;4915406;29;20479;-66
2023/06/05 00:19:00;;;;;;;9.40;2.55;;;;;;;15.49;100.00;100970.97;4915105;29;20028;-67
2023/06/05 00:21:26;;;;;;;6.03;2.38;;;;;;;15.57;100.00;100970.28;4914935;29;20028;-68
2023/06/05 00:23:51;;;;;;;8.52;2.75;;;;;;;15.61;100.00;100970.38;4915241;29;20036;-67
2023/06/05 00:26:17;;;;;;;7.95;2.75;;;;;;;15.43;100.00;100954.31;4915149;29;20054;-67
2023/06/05 00:28:42;;;;;;;11.50;3.20;;;;;;;15.46;100.00;100972.59;4914895;29;20024;-67
2023/06/05 00:31:08;;;;;;;10.95;2.95;;;;;;;15.23;100.00;100974.59;4914986;29;20024;-67
2023/06/05 00:33:33;;;;;;;9.27;2.90;;;;;;;15.10;100.00;100983.81;4915153;29;20028;-68
2023/06/05 00:35:59;;;;;;;9.32;2.80;;;;;;;14.92;100.00;100956.47;4914337;29;20035;-68
2023/06/05 00:38:24;;;;;;;11.10;3.20;;;;;;;14.80;100.00;100970.00;4914779;29;20510;-68
2023/06/05 00:40:50;;;;;;;6.65;2.45;;;;;;;14.82;100.00;100972.69;4914357;29;20035;-68
2023/06/05 00:43:16;;;;;;;13.25;3.03;;;;;;;14.70;100.00;100953.31;4914375;29;20040;-70
2023/06/05 00:45:42;;;;;;;8.73;2.60;;;;;;;14.69;100.00;100972.34;4914351;29;20028;-67
2023/06/05 00:48:07;;;;;;;7.45;2.97;;;;;;;14.35;100.00;100903.78;4925328;29;20558;-68
2023/06/05 00:50:34;;;;;;;10.75;2.92;;;;;;;14.66;100.00;100960.97;4916202;29;20024;-66
2023/06/05 00:53:03;;;;;;;13.93;2.97;;;;;;;14.72;100.00;100981.94;4914442;29;20036;-68
2023/06/05 00:55:29;;;;;;;10.40;3.15;;;;;;;14.84;100.00;100990.06;4914394;29;20036;-67
2023/06/05 00:57:55;;;;;;;9.18;2.78;;;;;;;14.87;100.00;100981.47;4914529;29;20056;-73
2023/06/05 01:00:21;;;;;;;8.68;3.08;;;;;;;14.81;100.00;100979.56;4914452;29;20036;-65
2023/06/05 01:02:47;;;;;;;11.43;3.20;;;;;;;14.78;100.00;100982.09;4914316;29;20114;-67
2023/06/05 01:05:13;;;;;;;9.90;2.67;;;;;;;14.74;100.00;100979.38;4913515;29;20172;-68
2023/06/05 01:07:39;;;;;;;8.32;3.63;;;;;;;14.79;100.00;100975.19;4913913;29;20103;-70
2023/06/05 01:10:08;;;;;;;7.38;3.10;;;;;;;14.81;100.00;100960.50;4913671;29;20593;-68
2023/06/05 01:12:46;;;;;;;11.38;2.92;;;;;;;14.79;100.00;100965.69;4914263;29;20502;-67
2023/06/05 01:15:12;;;;;;;12.38;3.33;;;;;;;14.68;100.00;100960.19;4914439;29;20039;-68
2023/06/05 01:17:39;;;;;;;9.23;2.75;;;;;;;14.71;100.00;100974.97;4913763;29;20028;-65
2023/06/05 01:20:09;;;;;;;7.00;2.78;;;;;;;14.72;100.00;100959.41;4896875;29;20028;-67
2023/06/05 01:22:37;;;;;;;11.27;3.25;;;;;;;14.38;100.00;100898.69;4913839;29;20043;-67
2023/06/05 01:25:05;;;;;;;8.20;2.40;;;;;;;14.56;100.00;100926.88;4914234;29;20032;-70
2023/06/05 01:27:45;;;;;;;8.27;3.00;;;;;;;14.78;100.00;100955.22;4897215;29;20160;-69
2023/06/05 01:30:10;;;;;;;;;;;;;;;14.74;100.00;100958.56;4914247;29;20111;-64
2023/06/05 01:33:13;;;;;;;11.38;2.75;;;;;;;14.75;100.00;100969.00;4913130;29;20010;-69
2023/06/05 01:35:40;;;;;;;9.55;3.10;;;;;;;14.76;100.00;100962.13;4836862;29;20136;-67
2023/06/05 01:38:09;;;;;;;7.55;3.10;;;;;;;14.39;100.00;100910.84;4836879;29;20517;-68
2023/06/05 01:40:35;;;;;;;9.40;2.90;;;;;;;14.66;100.00;100976.56;4836747;29;20062;-69
2023/06/05 01:43:03;;;;;;;8.77;2.90;;;;;;;14.67;100.00;100962.75;4836655;29;20072;-69
2023/06/05 01:45:30;;;;;;;10.82;2.75;;;;;;;14.37;100.00;100915.09;4826741;29;20034;-67
2023/06/05 01:47:56;;;;;;;11.38;2.90;;;;;;;14.39;100.00;100965.38;4835687;29;20107;-68
2023/06/05 01:50:22;;;;;;;8.40;2.97;;;;;;;14.21;100.00;100970.91;4836389;29;20036;-67
2023/06/05 01:52:47;;;;;;;6.70;3.00;;;;;;;14.07;100.00;100964.44;4837013;29;20129;-67
2023/06/05 01:55:23;;;;;;;11.43;2.83;;;;;;;14.29;100.00;100959.88;4836973;29;20042;-69
2023/06/05 01:57:49;;;;;;;12.77;3.28;;;;;;;14.44;100.00;100962.03;4837085;29;20058;-68
2023/06/05 02:00:15;;;;;;;30.38;3.40;;;;;;;14.43;100.00;100957.66;4837103;29;20597;-69
2023/06/05 02:02:42;;;;;;;14.40;3.15;;;;;;;14.44;100.00;100973.28;4837231;29;20041;-69
2023/06/05 02:05:09;;;;;;;11.13;3.35;;;;;;;14.29;100.00;100952.06;4837186;29;20568;-69
2023/06/05 02:07:38;;;;;;;10.40;2.78;;;;;;;14.47;100.00;100959.53;4837004;29;20485;-68
2023/06/05 02:10:05;;;;;;;8.80;3.30;;;;;;;14.56;100.00;100972.78;4837268;29;20133;-67
2023/06/05 02:12:32;;;;;;;12.93;3.00;;;;;;;14.73;100.00;100973.31;4871887;29;20178;-69
2023/06/05 02:14:58;;;;;;;11.27;3.35;;;;;;;14.63;100.00;100960.84;4894659;29;20136;-68
2023/06/05 02:17:24;;;;;;;6.25;2.30;;;;;;;14.70;100.00;100991.41;4894923;29;20465;-68
2023/06/05 02:19:50;;;;;;;11.18;3.35;;;;;;;14.71;100.00;100993.16;4895068;29;20036;-67
2023/06/05 02:22:16;;;;;;;10.57;3.33;;;;;;;14.54;100.00;100980.53;4898493;29;20028;-69
2023/06/05 02:24:42;;;;;;;13.93;3.42;;;;;;;14.42;100.00;101000.97;4898771;29;20025;-69
2023/06/05 02:27:10;;;;;;;12.82;3.30;;;;;;;14.28;100.00;100977.19;4898898;29;20037;-67
2023/06/05 02:29:36;;;;;;;9.57;3.40;;;;;;;14.08;100.00;100927.22;4898876;29;20028;-67
2023/06/05 02:32:03;;;;;;;8.73;3.05;;;;;;;14.47;100.00;100982.94;4900321;29;20062;-66
2023/06/05 02:34:28;;;;;;;9.93;3.05;;;;;;;14.60;100.00;100984.16;4917210;29;20459;-69
2023/06/05 02:36:53;;;;;;;10.05;3.10;;;;;;;14.61;100.00;100989.38;4917077;29;20028;-68
2023/06/05 02:39:19;;;;;;;11.45;3.13;;;;;;;14.65;100.00;100980.00;4917731;29;20111;-68
2023/06/05 02:41:44;;;;;;;10.18;3.60;;;;;;;14.65;100.00;100972.19;4917110;29;20036;-68
2023/06/05 02:44:10;;;;;;;14.57;3.15;;;;;;;14.72;100.00;100976.75;4917163;29;20032;-68
2023/06/05 02:46:35;;;;;;;10.60;3.42;;;;;;;13.40;100.00;100760.03;4917378;29;20491;-68
2023/06/05 02:49:01;;;;;;;15.23;5.00;;;;;;;14.71;100.00;100975.84;4917462;29;20107;-66
2023/06/05 02:51:26;;;;;;;10.02;3.10;;;;;;;14.68;100.00;100980.97;4916944;29;20034;-69
2023/06/05 02:53:51;;;;;;;10.07;3.42;;;;;;;14.62;100.00;100977.28;4916952;29;20028;-68
2023/06/05 02:56:17;;;;;;;9.30;3.03;;;;;;;14.59;100.00;100983.25;4917000;29;20452;-68
2023/06/05 02:58:43;;;;;;;8.55;2.97;;;;;;;14.56;100.00;100989.25;4917235;29;20036;-68
2023/06/05 03:01:10;;;;;;;9.50;2.92;;;;;;;14.19;100.00;100924.97;4917140;29;20055;-67
2023/06/05 03:03:36;;;;;;;8.80;2.90;;;;;;;14.14;100.00;100917.03;4915632;29;20122;-68
2023/06/05 03:06:06;;;;;;;13.18;3.45;;;;;;;14.54;100.00;100987.44;4916591;29;20114;-68
2023/06/05 03:08:35;;;;;;;13.18;3.30;;;;;;;14.47;100.00;100981.19;4916649;29;20039;-67
2023/06/05 03:11:05;;;;;;;12.65;3.47;;;;;;;14.45;100.00;100990.66;4916673;29;20074;-68
2023/06/05 03:13:32;;;;;;;11.50;3.08;;;;;;;14.25;100.00;100958.91;4916508;29;20051;-68
2023/06/05 03:16:00;;;;;;;7.35;3.17;;;;;;;14.42;100.00;100992.28;4916408;29;20042;-68
2023/06/05 03:18:27;;;;;;;12.27;3.10;;;;;;;14.28;100.00;100952.91;4916742;29;20028;-70
2023/06/05 03:20:56;;;;;;;9.55;3.33;;;;;;;14.41;100.00;100983.59;4916714;29;20852;-68
2023/06/05 03:23:25;;;;;;;11.35;3.15;;;;;;;14.34;100.00;100974.78;4916378;29;20051;-67
2023/06/05 03:25:54;;;;;;;7.95;3.50;;;;;;;14.37;100.00;100979.16;4916689;29;20036;-68
2023/06/05 03:28:22;;;;;;;12.75;3.50;;;;;;;14.31;100.00;100973.78;4916661;29;20111;-67
2023/06/05 03:30:47;;;;;;;9.25;3.75;;;;;;;14.44;100.00;101003.59;4916220;29;20028;-68
2023/06/05 03:33:14;;;;;;;11.63;4.13;;;;;;;14.07;100.00;100913.38;4916029;29;20035;-68
2023/06/05 03:35:41;;;;;;;10.10;3.53;;;;;;;14.57;100.00;100991.00;4916336;29;20028;-68
2023/06/05 03:38:06;;;;;;;9.90;3.40;;;;;;;14.61;100.00;100999.78;4916272;29;20039;-70
2023/06/05 03:40:32;;;;;;;12.68;3.83;;;;;;;14.61;100.00;101004.97;4916500;29;20036;-68
2023/06/05 03:42:57;;;;;;;12.52;3.75;;;;;;;14.60;100.00;101005.81;4915904;29;20028;-66
2023/06/05 03:45:26;;;;;;;10.70;3.55;;;;;;;14.50;100.00;100989.06;4916088;29;20036;-67
2023/06/05 03:47:52;;;;;;;13.43;3.33;;;;;;;14.47;100.00;100996.78;4916041;29;20035;-68
2023/06/05 03:50:17;;;;;;;11.90;3.30;;;;;;;14.30;100.00;100985.88;4916193;29;20032;-68
2023/06/05 03:52:43;;;;;;;12.90;2.92;;;;;;;14.48;100.00;100990.75;4916277;29;20047;-67
2023/06/05 03:55:09;;;;;;;10.68;3.70;;;;;;;14.53;100.00;100989.16;4916087;29;20028;-69
2023/06/05 03:57:38;;;;;;;14.38;3.80;;;;;;;14.68;100.00;100999.16;4916024;29;20048;-68
2023/06/05 04:00:10;;;;;;;8.43;2.80;;;;;;;14.81;100.00;101005.56;4883041;29;20565;-71
2023/06/05 04:02:37;;;;;;;12.38;3.65;;;;;;;14.86;100.00;100997.91;4913330;29;20047;-68
2023/06/05 04:05:03;;;;;;;10.82;3.10;;;;;;;14.87;100.00;100969.34;4915470;29;20032;-71
2023/06/05 04:07:30;;;;;;;10.18;3.53;;;;;;;14.99;100.00;100971.41;4913479;29;20127;-68
2023/06/05 04:09:55;;;;;;;10.38;3.85;;;;;;;15.13;100.00;100982.19;4909280;29;20136;-68
2023/06/05 04:12:21;;;;;;;14.80;4.00;;;;;;;15.09;100.00;100971.66;4899589;29;20072;-69
2023/06/05 04:14:46;;;;;;;6.68;3.03;;;;;;;15.06;100.00;100976.78;4901182;29;20040;-70
2023/06/05 04:17:13;;;;;;;9.25;3.47;;;;;;;15.04;100.00;100985.41;4898792;29;20036;-68
2023/06/05 04:19:40;;;;;;;16.02;3.53;;;;;;;14.99;100.00;100992.22;4915509;29;20399;-68
2023/06/05 04:22:05;;;;;;;12.32;3.60;;;;;;;14.88;100.00;100973.72;4901842;29;20040;-70
2023/06/05 04:24:31;;;;;;;12.43;4.13;;;;;;;14.89;100.00;100958.97;4896677;29;20591;-68
2023/06/05 04:27:00;;;;;;;12.73;3.45;;;;;;;14.95;100.00;100974.75;4878806;29;20500;-68
2023/06/05 04:29:26;;;;;;;12.02;3.80;;;;;;;14.97;100.00;100980.88;4896519;29;20025;-68
2023/06/05 04:31:52;;;;;;;10.35;3.40;;;;;;;14.92;100.00;100948.69;4906251;29;20410;-71
2023/06/05 04:34:18;;;;;;;8.88;3.40;;;;;;;15.17;100.00;100980.53;4910407;29;20036;-70
2023/06/05 04:36:44;;;;;;;10.40;3.28;;;;;;;15.23;100.00;100969.41;4912861;29;20036;-70
2023/06/05 04:39:17;;;;;;;11.65;3.88;;;;;;;15.38;100.00;100975.03;4912036;29;20032;-71
2023/06/05 04:41:46;;;;;;;11.13;3.97;;;;;;;15.45;100.00;100986.44;4904461;29;20111;-69
2023/06/05 04:44:18;;;;;;;7.47;3.80;;;;;;;15.41;100.00;100980.28;4905383;29;20388;-69
2023/06/05 04:46:45;;;;;;;8.88;3.40;;;;;;;15.41;100.00;100982.00;4903927;29;20036;-70
2023/06/05 04:49:14;;;;;;;11.30;4.13;;;;;;;15.17;100.00;100949.34;4907478;29;20032;-68
2023/06/05 04:51:40;;;;;;;9.75;3.85;;;;;;;15.47;100.00;100974.38;4900611;29;20488;-67
2023/06/05 04:54:06;;;;;;;11.93;4.07;;;;;;;15.48;100.00;100974.41;4914386;29;20044;-67
2023/06/05 04:56:34;;;;;;;9.15;3.78;;;;;;;15.56;100.00;100982.38;4897345;29;20407;-67
2023/06/05 04:59:01;;;;;;;9.85;3.60;;;;;;;15.62;100.00;100959.13;4914889;29;20032;-69
2023/06/05 05:01:27;;;;;;;6.30;2.83;;;;;;;15.58;100.00;100933.00;4914917;29;20039;-65
2023/06/05 05:03:53;;;;;;;9.85;3.28;;;;;;;15.95;100.00;100976.44;4905970;29;20032;-67
2023/06/05 05:06:19;;;;;;;12.10;3.38;;;;;;;16.08;100.00;100984.53;4896521;29;20096;-67
2023/06/05 05:08:46;;;;;;;9.60;3.30;;;;;;;16.16;100.00;100982.94;4895686;29;20035;-68
2023/06/05 05:11:12;;;;;;;8.88;3.25;;;;;;;15.34;100.00;100817.97;4898676;29;20119;-66
2023/06/05 05:13:38;;;;;;;9.95;3.00;;;;;;;16.40;100.00;100986.94;4914363;29;20039;-67
2023/06/05 05:16:04;;;;;;;11.55;3.42;;;;;;;16.09;100.00;100913.34;4903818;29;20039;-67
2023/06/05 05:18:30;;;;;;;9.15;3.28;;;;;;;16.49;100.00;100963.69;4896788;29;20016;-68
2023/06/05 05:20:55;;;;;;;10.80;3.15;;;;;;;16.53;100.00;100978.53;4905167;29;20079;-69
2023/06/05 05:23:21;;;;;;;9.02;2.85;;;;;;;16.59;100.00;100981.25;4909972;29;20039;-66
2023/06/05 05:25:46;;;;;;;11.15;3.47;;;;;;;16.70;100.00;100983.19;4893763;29;20062;-68
2023/06/05 05:28:13;;;;;;;9.13;3.60;;;;;;;16.78;100.00;100966.00;4910118;29;20036;-66
2023/06/05 05:30:38;;;;;;;10.90;3.67;;;;;;;16.92;100.00;100977.59;4903594;29;20031;-68
2023/06/05 05:33:05;;;;;;;10.23;3.65;;;;;;;17.05;100.00;100978.72;4912709;29;20028;-66
2023/06/05 05:35:31;;;;;;;16.77;3.25;;;;;;;16.91;100.00;100965.41;4904400;29;20032;-66
2023/06/05 05:37:56;;;;;;;9.68;3.33;;;;;;;16.82;100.00;100970.41;4890604;29;20104;-70
2023/06/05 05:40:22;;;;;;;8.50;3.30;;;;;;;16.56;100.00;100930.78;4897131;29;20059;-66
2023/06/05 05:42:47;;;;;;;10.25;3.10;;;;;;;17.01;100.00;100976.00;4906014;29;20028;-65
2023/06/05 05:45:13;;;;;;;12.00;3.08;;;;;;;16.78;100.00;100927.75;4914385;29;20027;-66
2023/06/05 05:47:38;;;;;;;8.48;3.05;;;;;;;17.14;100.00;100972.78;4914208;29;20499;-65
2023/06/05 05:50:05;;;;;;;10.25;3.13;;;;;;;17.23;100.00;100990.31;4913931;29;20149;-69
2023/06/05 05:52:30;;;;;;;11.85;3.33;;;;;;;17.32;100.00;100989.63;4914262;29;20202;-70
2023/06/05 05:54:58;;;;;;;6.85;2.55;;;;;;;17.42;100.00;100981.97;4913295;29;20166;-66
2023/06/05 05:57:23;;;;;;;7.95;3.25;;;;;;;17.59;100.00;100990.06;4905949;29;20061;-65
2023/06/05 05:59:49;;;;;;;13.00;3.70;;;;;;;17.65;100.00;100978.84;4861740;29;20040;-65
2023/06/05 06:02:14;;;;;;;8.85;2.70;;;;;;;17.32;100.00;100977.47;4901653;29;20091;-65
2023/06/05 06:04:40;;;;;;;8.15;3.60;;;;;;;17.26;100.00;100985.19;4913955;29;20111;-66
2023/06/05 06:07:06;;;;;;;10.50;3.65;;;;;;;17.32;100.00;100982.69;4913837;29;20134;-66
2023/06/05 06:09:31;;;;;;;9.80;2.80;;;;;;;17.34;100.00;100967.03;4913950;29;20116;-66
2023/06/05 06:11:57;;;;;;;14.07;3.55;;;;;;;17.66;100.00;100984.94;4914202;29;20062;-66
2023/06/05 06:14:23;;;;;;;9.73;3.00;;;;;;;17.34;100.00;100936.59;4914079;29;20399;-68
2023/06/05 06:16:53;;;;;;;9.48;2.78;;;;;;;17.43;100.00;100959.34;4913665;29;20070;-68
2023/06/05 06:19:23;;;;;;;8.30;3.60;;;;;;;17.66;100.00;100977.13;4897459;29;20028;-64
2023/06/05 06:21:49;;;;;;;11.52;3.53;;;;;;;17.46;100.00;100933.31;4913872;29;20043;-67
2023/06/05 06:24:15;;;;;;;10.48;3.60;;;;;;;17.48;100.00;100918.53;4913913;29;20033;-66
2023/06/05 06:26:42;;;;;;;10.60;3.58;;;;;;;17.81;100.00;100985.22;4913910;29;20028;-67
2023/06/05 06:29:08;;;;;;;9.50;3.33;;;;;;;17.94;100.00;100983.69;4913863;29;20067;-65
2023/06/05 06:31:33;;;;;;;8.55;3.25;;;;;;;18.00;100.00;100982.91;4913542;29;20103;-66
2023/06/05 06:33:59;;;;;;;10.07;3.33;;;;;;;17.99;100.00;100975.91;4913901;29;20550;-66
2023/06/05 06:36:26;;;;;;;10.60;3.28;;;;;;;17.99;100.00;100935.00;4913324;29;20036;-66
2023/06/05 06:38:52;;;;;;;9.93;3.47;;;;;;;18.37;100.00;100957.28;4896575;29;20028;-66
2023/06/05 06:41:18;;;;;;;11.70;3.22;;;;;;;18.54;100.00;100957.47;4901935;29;20039;-65
2023/06/05 06:43:43;;;;;;;7.65;3.33;;;;;;;18.68;100.00;100955.91;4895017;29;20032;-66
2023/06/05 06:46:09;;;;;;;9.25;3.35;;;;;;;18.77;100.00;100947.28;4894763;29;20040;-69
2023/06/05 06:48:34;;;;;;;6.38;3.13;;;;;;;18.92;100.00;100952.69;4894903;29;20024;-65
2023/06/05 06:51:00;;;;;;;9.18;3.80;;;;;;;19.03;100.00;100944.09;4894199;29;20507;-68
2023/06/05 06:53:25;;;;;;;9.55;3.30;;;;;;;19.13;100.00;100938.09;4894776;29;20036;-67
2023/06/05 06:55:51;;;;;;;8.48;3.10;;;;;;;19.33;100.00;100953.09;4894490;29;20418;-68
2023/06/05 06:58:17;;;;;;;15.55;3.25;;;;;;;19.35;100.00;100952.25;4894923;29;20052;-67
2023/06/05 07:00:43;;;;;;;6.65;3.17;;;;;;;19.34;100.00;100960.97;4894817;29;20044;-67
2023/06/05 07:03:10;;;;;;;7.50;3.30;;;;;;;19.42;100.00;100974.09;4894566;29;20415;-65
2023/06/05 07:05:35;;;;;;;6.28;3.10;;;;;;;19.10;100.00;100911.00;4894304;29;20060;-67
2023/06/05 07:08:01;;;;;;;7.82;2.92;;;;;;;19.50;100.00;100961.06;4897581;29;20199;-66
2023/06/05 07:10:28;;;;;;;12.73;4.18;;;;;;;19.75;100.00;100985.72;4898161;29;20080;-66
2023/06/05 07:12:54;;;;;;;9.52;3.72;;;;;;;19.59;100.00;100934.06;4897781;29;20484;-67
2023/06/05 07:15:20;;;;;;;11.93;3.80;;;;;;;19.85;100.00;100969.22;4897753;29;20035;-67
2023/06/05 07:17:45;;;;;;;9.52;3.72;;;;;;;19.98;100.00;100971.94;4879872;29;20045;-67
2023/06/05 07:20:12;;;;;;;8.90;3.25;;;;;;;20.01;100.00;100970.22;4897122;29;20036;-67
2023/06/05 07:22:42;;;;;;;5.90;2.97;;;;;;;20.19;100.00;100979.91;4913535;29;20036;-67
2023/06/05 07:25:09;;;;;;;7.18;3.28;;;;;;;19.79;100.00;100908.91;4911121;29;20028;-70
2023/06/05 07:27:35;;;;;;;8.65;3.50;;;;;;;20.20;100.00;100986.91;4916739;29;20056;-67
2023/06/05 07:30:01;;;;;;;8.52;3.17;;;;;;;20.26;100.00;100977.31;4916398;29;20119;-67
2023/06/05 07:32:26;;;;;;;10.00;3.53;;;;;;;20.38;100.00;100976.53;4916662;29;20088;-65
2023/06/05 07:34:52;;;;;;;8.75;3.10;;;;;;;20.47;100.00;100976.53;4916020;29;20028;-67
2023/06/05 07:37:17;;;;;;;9.88;3.30;;;;;;;20.50;100.00;100992.31;4916913;29;20039;-67
2023/06/05 07:39:43;;;;;;;5.00;2.70;;;;;;;20.05;99.59;100900.34;4916446;29;20095;-67
2023/06/05 07:45:42;;;;;;;12.18;3.30;;;;;;;20.60;100.00;100983.59;4916086;29;20514;-66
2023/06/05 07:48:07;;;;;;;8.40;2.83;;;;;;;20.31;98.90;100917.91;4916061;29;20040;-67
2023/06/05 07:50:33;;;;;;;10.27;3.42;;;;;;;20.81;100.00;100974.06;4915940;29;20028;-68
2023/06/05 07:52:58;;;;;;;8.65;3.15;;;;;;;20.84;97.23;100981.97;4915922;29;20039;-67
2023/06/05 07:55:24;;;;;;;7.57;3.20;;;;;;;20.98;98.87;100979.38;4915894;29;20055;-67
2023/06/05 07:57:53;;;;;;;9.02;2.80;;;;;;;21.07;97.01;100982.03;4915496;29;20513;-67
2023/06/05 08:00:19;;;;;;;8.93;2.88;;;;;;;21.16;90.92;100979.41;4899626;29;20107;-67
2023/06/05 08:02:45;;;;;;;7.38;2.95;;;;;;;21.45;93.37;100983.78;4916025;29;20171;-68
2023/06/05 08:05:10;;;;;;;7.65;2.92;;;;;;;21.54;93.93;100968.91;4912874;29;20514;-66
2023/06/05 08:07:36;;;;;;;5.88;3.03;;;;;;;21.70;95.77;100983.81;4915837;29;20036;-72
2023/06/05 08:10:01;;;;;;;9.30;2.78;;;;;;;21.62;96.27;100967.16;4916039;29;20028;-67
2023/06/05 08:12:27;;;;;;;7.82;3.15;;;;;;;21.56;95.04;100972.44;4897678;29;20055;-68
2023/06/05 08:14:53;;;;;;;6.25;3.22;;;;;;;21.22;92.85;100922.50;4915729;29;20039;-67
2023/06/05 08:57:41;;;;;;;6.53;2.70;;;;;;;23.20;78.46;100954.31;4896512;29;20623;-67
2023/06/05 09:00:10;;;;;;;7.70;2.50;;;;;;;23.25;79.37;100957.78;4895911;29;20052;-67
2023/06/05 09:02:39;;;;;;;9.23;2.50;;;;;;;22.93;77.30;100881.66;4895793;29;20031;-68
2023/06/05 09:05:05;;;;;;;;;;;;;;;23.41;79.88;100944.47;4878560;29;20049;-65
2023/06/05 09:07:31;;;;;;;9.52;2.60;;;;;;;23.46;83.11;100941.81;4894743;29;19970;-68
2023/06/05 09:09:57;;;;;;;7.25;2.63;;;;;;;23.52;75.69;100947.03;4905053;29;20020;-70
2023/06/05 09:12:24;;;;;;;6.75;2.40;;;;;;;23.55;73.73;100939.09;4897712;29;20032;-71
2023/06/05 09:14:50;;;;;;;7.95;1.92;;;;;;;23.43;73.43;100945.34;4899082;29;20032;-68
2023/06/05 09:17:16;;;;;;;5.50;2.33;;;;;;;23.43;74.30;100945.34;4890550;29;20053;-68
2023/06/05 09:19:43;;;;;;;9.27;3.45;;;;;;;23.61;75.35;100946.06;4905549;29;20031;-69
2023/06/05 09:22:10;;;;;;;5.32;2.40;;;;;;;23.71;79.57;100934.53;4904836;29;20053;-66
2023/06/05 09:24:37;;;;;;;6.15;2.50;;;;;;;23.94;77.73;100942.25;4903287;29;20400;-68
2023/06/05 09:27:10;;;;;;;9.60;2.60;;;;;;;24.03;70.22;100942.13;4905112;29;20775;-67
2023/06/05 09:29:38;;;;;;;4.07;2.13;;;;;;;23.64;68.38;100883.66;4905060;29;20218;-71
2023/06/05 09:32:15;;;;;;;8.98;2.67;;;;;;;24.10;67.07;100953.50;4906029;29;20021;-67
2023/06/05 09:34:41;;;;;;;6.22;2.20;;;;;;;24.18;64.36;100948.13;4905171;29;20028;-68
2023/06/05 09:37:08;;;;;;;6.47;2.50;;;;;;;24.18;63.52;100932.31;4904397;29;20025;-67
2023/06/05 09:39:43;;;;;;;3.70;2.03;;;;;;;24.05;51.45;100886.72;4903480;29;20419;-67
2023/06/05 09:42:08;;;;;;;6.68;2.50;;;;;;;24.08;48.54;100913.06;4904994;29;20024;-68
2023/06/05 09:44:35;;;;;;;6.28;2.30;;;;;;;24.38;52.09;100937.34;4894276;29;20028;-66
2023/06/05 09:47:02;;;;;;;6.68;2.20;;;;;;;24.60;50.90;100924.72;4913707;29;20032;-69
2023/06/05 09:49:32;;;;;;;4.57;2.28;;;;;;;24.78;46.96;100920.09;4913585;29;20091;-72
2023/06/05 09:51:59;;;;;;;6.57;2.33;;;;;;;24.86;49.03;100924.38;4912933;29;20114;-70
2023/06/05 09:54:27;;;;;;;7.30;2.38;;;;;;;24.89;49.78;100910.25;4912542;29;20036;-69
2023/06/05 09:56:57;;;;;;;4.13;2.40;;;;;;;25.11;46.84;100918.72;4879555;29;20110;-69
2023/06/05 09:59:28;;;;;;;5.32;2.33;;;;;;;25.26;45.00;100916.69;4913495;29;20035;-71
2023/06/05 10:01:55;;;;;;;7.10;2.20;;;;;;;25.01;47.53;100851.06;4911669;29;20035;-67
2023/06/05 10:04:23;;;;;;;5.22;2.13;;;;;;;25.48;47.06;100918.13;4896339;29;20064;-68
2023/06/05 10:06:51;;;;;;;4.75;2.05;;;;;;;25.65;44.72;100903.72;4912959;29;20024;-68
2023/06/05 10:09:17;;;;;;;6.28;2.25;;;;;;;25.80;45.95;100890.19;4913894;29;20043;-67
2023/06/05 10:11:43;;;;;;;6.18;2.10;;;;;;;25.93;48.40;100889.94;4913264;29;20043;-67
2023/06/05 10:14:09;;;;;;;5.95;2.28;;;;;;;26.10;45.19;100897.56;4913670;29;20391;-69
2023/06/05 10:16:35;;;;;;;5.10;2.13;;;;;;;26.15;47.35;100891.25;4913409;29;20036;-70
2023/06/05 10:19:03;;;;;;;5.10;1.98;;;;;;;26.24;46.51;100891.97;4913678;29;20459;-71
2023/06/05 10:21:29;;;;;;;5.07;2.15;;;;;;;26.37;44.87;100866.97;4912954;29;20092;-65
2023/06/05 10:58:00;;;;;;;14.02;2.30;;;;;;;27.70;36.56;100870.78;4915319;29;20059;-69
2023/06/05 12:39:49;;;;;;;4.03;2.30;;;;;;;27.09;39.52;100763.72;4907720;29;20090;-67
2023/06/05 12:42:15;;;;;;;4.10;2.63;;;;;;;27.31;35.74;100767.56;4914773;29;20507;-71
2023/06/05 12:44:40;;;;;;;4.18;2.42;;;;;;;27.74;33.42;100816.75;4914915;29;20024;-66
2023/06/05 12:47:06;;;;;;;4.70;2.60;;;;;;;27.51;35.34;100805.00;4914910;29;20701;-65
2023/06/05 12:49:32;;;;;;;3.60;2.47;;;;;;;27.44;39.04;100819.31;4914887;29;20035;-66
2023/06/05 12:51:57;;;;;;;6.80;3.00;;;;;;;27.50;37.68;100826.25;4911894;29;20491;-66
2023/06/05 12:54:23;;;;;;;4.00;2.78;;;;;;;27.51;38.85;100802.34;4914704;29;20092;-67
2023/06/05 12:56:49;;;;;;;6.90;3.05;;;;;;;27.74;37.68;100814.09;4914381;29;20406;-67
2023/06/05 12:59:14;;;;;;;4.78;2.72;;;;;;;27.58;35.88;100773.88;4914268;29;20123;-70
2023/06/05 13:01:40;;;;;;;4.10;2.22;;;;;;;27.67;38.57;100833.75;4914616;29;20096;-70
2023/06/05 13:04:05;;;;;;;5.85;2.30;;;;;;;27.39;40.00;100790.28;4913140;29;20032;-65
2023/06/05 13:06:33;;;;;;;6.50;2.55;;;;;;;28.01;41.88;100820.34;4913760;29;20067;-68
2023/06/05 13:09:03;;;;;;;4.82;2.78;;;;;;;28.17;41.24;100782.75;4908420;29;20032;-70
2023/06/05 13:11:29;;;;;;;6.45;2.70;;;;;;;28.62;36.85;100810.53;4882650;29;20388;-68
2023/06/05 13:13:54;;;;;;;3.50;2.10;;;;;;;27.95;35.15;100809.06;4909998;29;20035;-69
2023/06/05 13:16:19;;;;;;;6.07;2.72;;;;;;;27.88;43.17;100817.19;4892726;29;20118;-71
2023/06/05 13:18:45;;;;;;;10.38;2.63;;;;;;;27.89;37.62;100757.91;4907528;29;20050;-66
2023/06/05 13:21:10;;;;;;;7.22;2.67;;;;;;;28.12;34.80;100806.78;4909415;29;20114;-69
2023/06/05 13:23:36;;;;;;;6.20;2.97;;;;;;;28.46;37.53;100811.00;4901660;29;20054;-66
2023/06/05 13:26:02;;;;;;;6.45;2.40;;;;;;;28.62;36.45;100795.44;4902139;29;20036;-69
2023/06/05 13:28:29;;;;;;;6.45;2.60;;;;;;;28.92;35.55;100811.31;4892537;29;20303;-68
2023/06/05 13:30:55;;;;;;;5.47;2.50;;;;;;;29.03;35.61;100792.34;4895981;29;20041;-66
2023/06/05 13:33:22;;;;;;;6.30;2.58;;;;;;;29.32;31.28;100804.63;4909455;29;20541;-71
2023/06/05 13:35:48;;;;;;;6.88;3.17;;;;;;;29.00;31.97;100718.03;4909066;29;20070;-67
2023/06/05 13:38:13;;;;;;;5.30;2.38;;;;;;;29.64;31.00;100812.34;4892102;29;20444;-70
2023/06/05 13:40:41;;;;;;;5.55;2.20;;;;;;;29.48;35.08;100788.09;4901133;29;20075;-69
2023/06/05 13:43:06;;;;;;;6.95;2.85;;;;;;;29.52;32.23;100774.63;4908338;29;20055;-69
2023/06/05 13:45:32;;;;;;;4.28;2.72;;;;;;;29.66;32.53;100806.03;4913852;29;20067;-68
2023/06/05 13:47:57;;;;;;;5.18;2.88;;;;;;;29.78;31.00;100799.38;4913984;29;20038;-69
2023/06/05 13:50:23;;;;;;;9.80;2.70;;;;;;;29.60;31.86;100738.91;4914059;29;20035;-64
2023/06/05 13:52:49;;;;;;;7.18;2.78;;;;;;;30.00;31.82;100799.44;4904099;29;20017;-65
2023/06/05 13:55:14;;;;;;;4.10;2.53;;;;;;;29.85;34.73;100782.25;4910770;29;20114;-66
2023/06/05 13:57:40;;;;;;;6.25;2.60;;;;;;;29.90;33.93;100789.25;4906873;29;20024;-65
2023/06/05 14:00:07;;;;;;;6.40;2.40;;;;;;;29.65;33.62;100728.94;4904905;29;20113;-70
2023/06/05 14:02:32;;;;;;;7.28;2.60;;;;;;;30.12;34.37;100787.47;4902963;29;20052;-70
2023/06/05 14:04:58;;;;;;;4.97;2.67;;;;;;;30.12;31.23;100791.91;4906030;29;20564;-67
2023/06/05 14:07:24;;;;;;;5.63;2.90;;;;;;;30.12;32.96;100775.94;4904004;29;20024;-71
2023/06/05 14:09:50;;;;;;;8.80;2.55;;;;;;;30.10;32.71;100770.66;4908915;29;20119;-73
2023/06/05 14:12:17;;;;;;;5.80;2.70;;;;;;;30.09;33.90;100768.94;4907424;29;20411;-72